Guanajuato, Mexico

5:10 PM CST on January 25, 2015 (GMT -0600)
De Guanajuato International | Change Station
CLOSE
Current Station
Airport
Location: Del Bajio,
Elevation: 5968 ft
Nearby Weather Stations

Elev 5968 ft 20.99 °N, 101.48 °W | Updated 23 minutes ago

Overcast
Overcast
70 °F
Feels Like 70 °F
N
0
Wind Variable Wind from North

Today
High -- | Low -- °F
--% Chance of Precip.
Yesterday
High -- | Low -- °F
Precip. -- in
7:23 AM 6:31 PM
Waxing Crescent, 36% visible
Pressure 30.26 in
Visibility 10.0 miles
Clouds Few 3000 ft
Scattered Clouds 16000 ft
Overcast 22000 ft
Dew Point 34 °F
Humidity 27%
Rainfall 0.00 in
Snow Depth Not available.
UV 1 out of 12
Pollen Not available.
Air Quality Not available.
Flu Activity Not available.
METAR MMLO 252247Z 00000KT 10SM FEW030 SCT160 OVC220 21/01 A3026 RMK 8/537

More Conditions Fewer Conditions

Pressure 30.26 in
Visibility 10.0 miles
Clouds Few 3000 ft
Scattered Clouds 16000 ft
Overcast 22000 ft
Dew Point 34 °F
Humidity 27%
Rainfall 0.00 in
Snow Depth Not available.
UV 1 out of 12
Pollen Not available.
Air Quality Not available.
Flu Activity Not available.
METAR MMLO 252247Z 00000KT 10SM FEW030 SCT160 OVC220 21/01 A3026 RMK 8/537

More Conditions Fewer Conditions

10-Day Weather Forecast

Almanac

Astronomy

Jan. 25, 2015 Rise Set
Actual Time
Civil Twilight
Nautical Twilight
Astronomical Twilight
Moon
Length of Visible Light
Length of Day
Tomorrow will be .
, % of the Moon is Illuminated

Today's Extremes

Country Highs Country Lows

Community

WunderPhotos

Upload Photos

1,790,085 photos uploaded!

WunderBlogs® & News

Nearby

Air Quality

  Air Quality AQ Index Pollutant
Not available.

Snow Depth

Station Depth Elevation

Earthquake Activity

City Distance Mag. Time & Date
Minimum magnitude displayed is 2.5.

Coastal Water Temperatures

Place Temperature

Nearby Weather Stations